Time;durP1;ratioP1;P1;durP2;ratioP2;P2;SDS_P1;SDS_P2;PMS_P1;PMS_P2;Temp;Humidity;BMP_temperature;BMP_pressure;BME280_temperature;BME280_humidity;BME280_pressure;Samples;Min_cycle;Max_cycle;Signal;HPM_P1;HPM_P2
2022/03/20 00:00:40;;;;;;;15.73;11.90;;;;;;;;;;10330781;28;20525;-71
2022/03/20 00:05:42;;;;;;;13.33;8.83;;;;;;;;;;10330492;28;20109;-72
2022/03/20 00:10:44;;;;;;;12.38;10.20;;;;;;;;;;10330297;28;20261;-73
2022/03/20 00:15:46;;;;;;;16.35;13.27;;;;;;;;;;10329948;28;20404;-70
2022/03/20 00:20:48;;;;;;;17.48;15.90;;;;;;;;;;10303130;28;20027;-74
2022/03/20 00:25:48;;;;;;;16.38;12.00;;;;;;;;;;10317459;28;20142;-71
2022/03/20 00:30:49;;;;;;;17.70;14.65;;;;;;;;;;10292987;28;20063;-70
2022/03/20 00:35:50;;;;;;;16.60;13.73;;;;;;;;;;10297884;28;20143;-69
2022/03/20 00:40:50;;;;;;;16.63;9.82;;;;;;;;;;10320116;28;20113;-74
2022/03/20 00:45:51;;;;;;;19.27;13.87;;;;;;;;;;10329166;28;20018;-72
2022/03/20 00:50:51;;;;;;;18.10;12.73;;;;;;;;;;10328620;28;20465;-75
2022/03/20 00:55:52;;;;;;;17.40;13.45;;;;;;;;;;10328223;28;20030;-77
2022/03/20 01:00:52;;;;;;;18.15;16.15;;;;;;;;;;10328224;28;20025;-73
2022/03/20 01:05:53;;;;;;;16.67;14.57;;;;;;;;;;10329678;28;20491;-73
2022/03/20 01:10:53;;;;;;;17.35;11.05;;;;;;;;;;10328273;28;20459;-70
2022/03/20 01:15:53;;;;;;;11.20;9.07;;;;;;;;;;10327698;28;20023;-74
2022/03/20 01:20:54;;;;;;;13.82;11.98;;;;;;;;;;10324707;28;20026;-70
2022/03/20 01:25:54;;;;;;;9.73;8.83;;;;;;;;;;10296230;28;20019;-70
2022/03/20 01:30:55;;;;;;;18.30;12.32;;;;;;;;;;10288263;28;20055;-75
2022/03/20 01:35:55;;;;;;;11.75;8.95;;;;;;;;;;10303289;28;20031;-71
2022/03/20 01:40:55;;;;;;;18.13;8.93;;;;;;;;;;10286676;28;20408;-71
2022/03/20 01:45:56;;;;;;;15.20;13.83;;;;;;;;;;10286923;28;20101;-76
2022/03/20 01:50:56;;;;;;;19.80;13.18;;;;;;;;;;10302305;28;20771;-75
2022/03/20 01:55:57;;;;;;;16.75;14.13;;;;;;;;;;10285630;28;20417;-73
2022/03/20 02:00:57;;;;;;;15.40;12.50;;;;;;;;;;10298987;28;20481;-74
2022/03/20 02:06:01;;;;;;;17.63;15.40;;;;;;;;;;10301354;28;20049;-70
2022/03/20 02:11:01;;;;;;;20.60;18.50;;;;;;;;;;10313600;28;20037;-72
2022/03/20 02:16:01;;;;;;;19.98;14.40;;;;;;;;;;10320895;28;20037;-70
2022/03/20 02:21:02;;;;;;;16.63;13.38;;;;;;;;;;10325324;28;20026;-74
2022/03/20 02:26:03;;;;;;;12.98;10.75;;;;;;;;;;10328481;28;20018;-72
2022/03/20 02:31:03;;;;;;;14.75;12.90;;;;;;;;;;10324069;28;20055;-70
2022/03/20 02:36:03;;;;;;;15.32;13.05;;;;;;;;;;10328858;28;20025;-74
2022/03/20 02:41:14;;;;;;;18.37;13.23;;;;;;;;;;10291225;28;20084;-70
2022/03/20 02:46:14;;;;;;;19.35;13.35;;;;;;;;;;10289664;28;20262;-70
2022/03/20 02:51:15;;;;;;;17.33;14.77;;;;;;;;;;10284199;28;20027;-72
2022/03/20 02:56:15;;;;;;;19.27;14.70;;;;;;;;;;10294676;28;20035;-74
2022/03/20 03:01:16;;;;;;;13.95;12.52;;;;;;;;;;10283875;28;20026;-72
2022/03/20 03:06:16;;;;;;;18.38;15.95;;;;;;;;;;10283674;28;20382;-72
2022/03/20 03:11:17;;;;;;;21.35;18.95;;;;;;;;;;10296372;28;20180;-71
2022/03/20 03:16:17;;;;;;;18.53;11.57;;;;;;;;;;10290358;28;20031;-74
2022/03/20 03:21:18;;;;;;;17.45;15.23;;;;;;;;;;10299314;28;20038;-71
2022/03/20 03:26:18;;;;;;;17.60;15.98;;;;;;;;;;10312204;28;20041;-71
2022/03/20 03:31:18;;;;;;;18.45;15.43;;;;;;;;;;10313033;28;20054;-68
2022/03/20 03:36:19;;;;;;;20.47;18.40;;;;;;;;;;10300721;28;20031;-71
2022/03/20 03:41:19;;;;;;;24.10;15.88;;;;;;;;;;10320232;28;20041;-70
2022/03/20 03:46:20;;;;;;;27.08;19.60;;;;;;;;;;10295060;28;20027;-72
2022/03/20 03:51:20;;;;;;;19.33;17.23;;;;;;;;;;10299153;28;20472;-73
2022/03/20 03:56:20;;;;;;;26.92;21.10;;;;;;;;;;10283715;28;20482;-75
2022/03/20 04:01:21;;;;;;;27.15;24.80;;;;;;;;;;10282872;28;20382;-71
2022/03/20 04:06:21;;;;;;;28.08;25.58;;;;;;;;;;10310967;28;20516;-74
2022/03/20 04:11:22;;;;;;;22.13;20.07;;;;;;;;;;10292940;28;20031;-78
2022/03/20 04:16:22;;;;;;;20.00;17.90;;;;;;;;;;10281839;28;20022;-71
2022/03/20 04:21:22;;;;;;;23.00;20.67;;;;;;;;;;10282240;28;20023;-71
2022/03/20 04:26:23;;;;;;;27.25;20.73;;;;;;;;;;10315632;28;20015;-73
2022/03/20 04:31:24;;;;;;;24.50;21.90;;;;;;;;;;10307617;28;20059;-74
2022/03/20 04:36:25;;;;;;;38.03;23.13;;;;;;;;;;10329518;28;20468;-70
2022/03/20 04:41:26;;;;;;;27.92;20.35;;;;;;;;;;10330420;28;20037;-72
2022/03/20 04:46:26;;;;;;;19.98;17.05;;;;;;;;;;10328125;28;20026;-72
2022/03/20 05:02:04;;;;;;;18.70;16.20;;;;;;;;;;10323024;28;20453;-76
2022/03/20 05:07:05;;;;;;;26.17;20.67;;;;;;;;;;10312426;28;20027;-74
2022/03/20 05:17:24;;;;;;;30.42;22.60;;;;;;;;;;10322945;28;20030;-72
2022/03/20 05:22:25;;;;;;;30.58;22.00;;;;;;;;;;10307611;28;20599;-73
2022/03/20 05:27:25;;;;;;;22.73;17.40;;;;;;;;;;10317241;28;20022;-70
2022/03/20 05:32:25;;;;;;;22.58;17.50;;;;;;;;;;10311115;28;20050;-73
2022/03/20 05:37:25;;;;;;;31.57;18.90;;;;;;;;;;10313815;28;20027;-70
2022/03/20 05:42:26;;;;;;;23.75;16.75;;;;;;;;;;10286352;28;20026;-75
2022/03/20 05:47:27;;;;;;;21.15;13.32;;;;;;;;;;10304967;28;20018;-70
2022/03/20 05:52:30;;;;;;;20.65;13.70;;;;;;;;;;10294700;28;20489;-75
2022/03/20 06:02:57;;;;;;;21.85;13.90;;;;;;;;;;10292007;28;20026;-73
2022/03/20 06:07:59;;;;;;;23.63;13.73;;;;;;;;;;10315558;28;20448;-74
2022/03/20 06:13:02;;;;;;;28.42;12.98;;;;;;;;;;10313418;28;20026;-70
2022/03/20 06:18:04;;;;;;;25.08;15.25;;;;;;;;;;10325355;28;20567;-72
2022/03/20 06:23:05;;;;;;;22.05;13.00;;;;;;;;;;10310856;28;20134;-79
2022/03/20 06:28:05;;;;;;;14.43;9.15;;;;;;;;;;10303572;28;20152;-78
2022/03/20 06:33:07;;;;;;;13.73;8.05;;;;;;;;;;10312063;28;20063;-72
2022/03/20 06:38:08;;;;;;;15.27;7.50;;;;;;;;;;10312010;28;20114;-75
2022/03/20 06:43:08;;;;;;;12.30;7.13;;;;;;;;;;10318797;28;20041;-71
2022/03/20 06:48:09;;;;;;;13.05;6.57;;;;;;;;;;10314100;28;20034;-72
2022/03/20 06:53:11;;;;;;;14.77;6.97;;;;;;;;;;10316783;28;20037;-73
2022/03/20 06:58:11;;;;;;;11.98;7.10;;;;;;;;;;10321265;28;20473;-75
2022/03/20 07:03:12;;;;;;;11.80;6.13;;;;;;;;;;10290268;28;20022;-74
2022/03/20 07:08:13;;;;;;;13.48;6.70;;;;;;;;;;10299718;28;20039;-76
2022/03/20 07:18:32;;;;;;;10.82;6.95;;;;;;;;;;10306002;28;20034;-73
2022/03/20 07:23:32;;;;;;;13.93;7.13;;;;;;;;;;10300172;28;20023;-75
2022/03/20 07:33:51;;;;;;;12.00;5.68;;;;;;;;;;10313661;28;20054;-73
2022/03/20 07:38:52;;;;;;;8.18;5.03;;;;;;;;;;10299320;28;20481;-73
2022/03/20 07:43:52;;;;;;;14.10;6.80;;;;;;;;;;10282537;28;20480;-71
2022/03/20 07:48:53;;;;;;;12.83;5.63;;;;;;;;;;10315387;28;20038;-75
2022/03/20 07:53:53;;;;;;;14.45;5.68;;;;;;;;;;10309955;28;20039;-79
2022/03/20 07:58:54;;;;;;;14.00;5.70;;;;;;;;;;10319066;28;20022;-77
2022/03/20 08:03:55;;;;;;;13.63;6.13;;;;;;;;;;10315834;28;20483;-79
2022/03/20 08:08:59;;;;;;;14.00;6.45;;;;;;;;;;10318877;28;20030;-74
2022/03/20 08:14:00;;;;;;;17.25;5.55;;;;;;;;;;10327904;28;20113;-72
2022/03/20 08:19:01;;;;;;;14.05;6.70;;;;;;;;;;10302057;28;20042;-77
2022/03/20 08:24:04;;;;;;;13.52;6.25;;;;;;;;;;10304374;28;20049;-71
2022/03/20 08:29:07;;;;;;;12.35;5.90;;;;;;;;;;10319381;28;20030;-77
2022/03/20 08:34:07;;;;;;;10.30;5.88;;;;;;;;;;10327866;28;20137;-68
2022/03/20 08:39:08;;;;;;;11.70;5.93;;;;;;;;;;10327917;28;20038;-71
2022/03/20 08:44:08;;;;;;;9.02;6.10;;;;;;;;;;10318864;28;20019;-72
2022/03/20 08:49:09;;;;;;;9.25;5.28;;;;;;;;;;10287090;28;20027;-70
2022/03/20 08:54:11;;;;;;;14.48;6.22;;;;;;;;;;10288700;28;20062;-71
2022/03/20 08:59:11;;;;;;;9.73;5.18;;;;;;;;;;10287437;28;20073;-72
2022/03/20 09:04:11;;;;;;;8.68;4.90;;;;;;;;;;10303031;28;20125;-74
2022/03/20 09:09:13;;;;;;;13.38;5.05;;;;;;;;;;10288256;28;20026;-71
2022/03/20 09:14:13;;;;;;;9.35;5.13;;;;;;;;;;10289185;28;20030;-74
2022/03/20 09:19:13;;;;;;;14.33;5.60;;;;;;;;;;10326753;28;20030;-75
2022/03/20 09:24:15;;;;;;;5.70;4.10;;;;;;;;;;10326019;28;20435;-70
2022/03/20 09:29:17;;;;;;;7.20;4.63;;;;;;;;;;10325889;28;20034;-73
2022/03/20 09:34:17;;;;;;;12.35;5.43;;;;;;;;;;10325560;28;20058;-75
2022/03/20 09:39:17;;;;;;;9.27;5.43;;;;;;;;;;10324498;28;20026;-74
2022/03/20 09:44:21;;;;;;;11.38;4.40;;;;;;;;;;10318992;28;20041;-74
2022/03/20 09:49:25;;;;;;;10.73;4.13;;;;;;;;;;10324465;28;20046;-73
2022/03/20 09:54:26;;;;;;;6.80;3.90;;;;;;;;;;10323569;28;20037;-73
2022/03/20 09:59:26;;;;;;;5.55;3.15;;;;;;;;;;10340347;28;20030;-74
2022/03/20 10:04:26;;;;;;;6.45;3.47;;;;;;;;;;10325237;28;20041;-71
2022/03/20 10:09:27;;;;;;;5.53;3.28;;;;;;;;;;10326236;28;20091;-74
2022/03/20 10:14:30;;;;;;;6.97;3.60;;;;;;;;;;10307324;28;20023;-74
2022/03/20 10:19:31;;;;;;;6.30;3.72;;;;;;;;;;10323455;28;20030;-73
2022/03/20 10:24:33;;;;;;;6.20;3.85;;;;;;;;;;10323520;28;20027;-76
2022/03/20 10:29:34;;;;;;;7.38;3.33;;;;;;;;;;10298421;28;20035;-73
2022/03/20 10:34:54;;;;;;;6.38;3.42;;;;;;;;;;10283648;28;20055;-71
2022/03/20 10:40:08;;;;;;;5.25;3.70;;;;;;;;;;10301179;28;20053;-70
2022/03/20 10:45:08;;;;;;;5.80;3.58;;;;;;;;;;10322674;28;20467;-71
2022/03/20 10:50:09;;;;;;;5.88;3.30;;;;;;;;;;10322958;28;20032;-75
2022/03/20 10:55:12;;;;;;;11.73;4.03;;;;;;;;;;10321200;28;20139;-70
2022/03/20 11:00:14;;;;;;;7.65;4.20;;;;;;;;;;10325938;28;20049;-70
2022/03/20 11:05:14;;;;;;;6.88;3.80;;;;;;;;;;10321786;28;20555;-76
2022/03/20 11:10:14;;;;;;;8.20;4.50;;;;;;;;;;10320701;28;20026;-75
2022/03/20 11:15:15;;;;;;;11.02;4.55;;;;;;;;;;10322578;28;20511;-72
2022/03/20 11:20:16;;;;;;;7.00;3.90;;;;;;;;;;10280929;28;20030;-71
2022/03/20 11:25:20;;;;;;;7.35;3.53;;;;;;;;;;10287685;28;20027;-71
2022/03/20 11:30:22;;;;;;;7.80;3.55;;;;;;;;;;10281836;28;20054;-75
2022/03/20 11:35:27;;;;;;;7.45;3.95;;;;;;;;;;10297762;28;20022;-77
2022/03/20 11:40:31;;;;;;;8.05;4.50;;;;;;;;;;10295957;28;20058;-71
2022/03/20 11:45:32;;;;;;;10.30;5.30;;;;;;;;;;10304368;28;20089;-76
2022/03/20 11:50:51;;;;;;;6.20;4.47;;;;;;;;;;10306862;28;20061;-76
2022/03/20 11:55:51;;;;;;;14.90;5.35;;;;;;;;;;10320974;28;20037;-70
2022/03/20 12:01:05;;;;;;;8.30;5.10;;;;;;;;;;10300570;28;20034;-75
2022/03/20 12:06:26;;;;;;;9.57;5.97;;;;;;;;;;10318763;28;20474;-73
2022/03/20 12:11:50;;;;;;;8.50;5.35;;;;;;;;;;10312076;28;20038;-74
2022/03/20 12:16:52;;;;;;;14.82;5.30;;;;;;;;;;10310129;28;20043;-73
2022/03/20 12:22:00;;;;;;;10.82;5.28;;;;;;;;;;10305688;28;20080;-75
2022/03/20 12:27:18;;;;;;;8.10;4.93;;;;;;;;;;10313857;28;20489;-71
2022/03/20 12:32:22;;;;;;;10.27;4.53;;;;;;;;;;10303642;28;20116;-72
2022/03/20 12:37:42;;;;;;;6.47;4.10;;;;;;;;;;10317713;28;20065;-76
2022/03/20 12:42:53;;;;;;;8.13;4.07;;;;;;;;;;10298101;28;20030;-71
2022/03/20 12:47:53;;;;;;;8.13;4.50;;;;;;;;;;10315933;28;20424;-74
2022/03/20 12:53:01;;;;;;;13.20;4.90;;;;;;;;;;10307156;28;20033;-74
2022/03/20 12:58:02;;;;;;;10.52;4.53;;;;;;;;;;10314090;28;20538;-70
2022/03/20 13:03:13;;;;;;;10.73;4.95;;;;;;;;;;10321009;28;20404;-71
2022/03/20 13:08:24;;;;;;;10.90;5.95;;;;;;;;;;10326427;28;20496;-71
2022/03/20 13:13:29;;;;;;;10.52;4.47;;;;;;;;;;10326842;28;20030;-74
2022/03/20 13:18:31;;;;;;;11.43;5.13;;;;;;;;;;10326482;28;20022;-75
2022/03/20 13:23:31;;;;;;;8.73;4.53;;;;;;;;;;10292865;28;20421;-74
2022/03/20 13:28:38;;;;;;;10.18;5.22;;;;;;;;;;10302620;28;20030;-71
2022/03/20 13:33:45;;;;;;;9.43;4.82;;;;;;;;;;10312691;28;20046;-77
2022/03/20 13:38:46;;;;;;;8.13;4.65;;;;;;;;;;10325693;28;20405;-74
2022/03/20 13:43:47;;;;;;;11.85;5.10;;;;;;;;;;10324490;28;20029;-71
2022/03/20 13:48:48;;;;;;;8.60;4.93;;;;;;;;;;10316560;28;20046;-71
2022/03/20 13:54:07;;;;;;;9.63;5.07;;;;;;;;;;10283832;28;20034;-74
2022/03/20 13:59:08;;;;;;;7.43;4.43;;;;;;;;;;10312660;28;20033;-75
2022/03/20 14:04:13;;;;;;;7.20;4.22;;;;;;;;;;10324380;28;20026;-76
2022/03/20 14:09:14;;;;;;;8.00;4.25;;;;;;;;;;10325581;28;20027;-75
2022/03/20 14:14:14;;;;;;;10.90;4.72;;;;;;;;;;10323708;28;20048;-70
2022/03/20 14:19:14;;;;;;;5.80;4.10;;;;;;;;;;10340111;28;20033;-73
2022/03/20 14:24:15;;;;;;;10.15;4.68;;;;;;;;;;10324032;28;20018;-73
2022/03/20 14:39:59;;;;;;;7.50;4.35;;;;;;;;;;10283554;28;20122;-72
2022/03/20 14:45:00;;;;;;;9.67;5.63;;;;;;;;;;10304207;28;20018;-71
2022/03/20 14:50:01;;;;;;;8.90;4.43;;;;;;;;;;10307350;28;20303;-72
2022/03/20 14:55:04;;;;;;;9.60;4.25;;;;;;;;;;10322645;28;20412;-73
2022/03/20 15:00:05;;;;;;;8.07;4.57;;;;;;;;;;10315728;28;20104;-71
2022/03/20 15:05:05;;;;;;;8.73;4.10;;;;;;;;;;10319410;28;20085;-71
2022/03/20 15:15:24;;;;;;;;;;;;;;;;;;10320810;28;20038;-75
2022/03/20 15:20:25;;;;;;;13.68;4.47;;;;;;;;;;10322200;28;19914;-73
2022/03/20 15:25:25;;;;;;;8.27;4.88;;;;;;;;;;10323533;28;20073;-72
2022/03/20 15:30:26;;;;;;;9.55;5.03;;;;;;;;;;10311238;28;20536;-74
2022/03/20 15:35:27;;;;;;;9.57;4.90;;;;;;;;;;10318807;28;20493;-75
2022/03/20 15:40:27;;;;;;;13.05;4.93;;;;;;;;;;10320821;28;20034;-75
2022/03/20 15:45:27;;;;;;;11.23;5.78;;;;;;;;;;10319433;28;20069;-75
2022/03/20 15:50:28;;;;;;;10.45;5.50;;;;;;;;;;10320694;28;20472;-71
2022/03/20 15:55:28;;;;;;;12.70;4.50;;;;;;;;;;10321928;28;20061;-73
2022/03/20 16:00:28;;;;;;;6.37;4.37;;;;;;;;;;10322455;28;20117;-72
2022/03/20 16:05:29;;;;;;;9.40;4.40;;;;;;;;;;10320679;28;20063;-74
2022/03/20 16:10:30;;;;;;;8.27;3.78;;;;;;;;;;10320940;28;20088;-72
2022/03/20 16:15:30;;;;;;;8.52;4.60;;;;;;;;;;10319874;28;20045;-71
2022/03/20 16:20:30;;;;;;;9.10;5.68;;;;;;;;;;10296210;28;20022;-75
2022/03/20 16:30:50;;;;;;;7.75;4.80;;;;;;;;;;10289082;28;20051;-72
2022/03/20 16:35:50;;;;;;;11.10;4.93;;;;;;;;;;10304106;28;20030;-72
2022/03/20 16:40:54;;;;;;;6.77;4.50;;;;;;;;;;10303647;28;20045;-73
2022/03/20 16:45:55;;;;;;;9.45;5.85;;;;;;;;;;10315183;28;20333;-75
2022/03/20 16:51:01;;;;;;;10.88;5.10;;;;;;;;;;10305201;28;20307;-74
2022/03/20 16:56:01;;;;;;;9.77;5.90;;;;;;;;;;10322562;28;20084;-71
2022/03/20 17:01:01;;;;;;;12.23;5.07;;;;;;;;;;10309088;28;20048;-72
2022/03/20 17:06:02;;;;;;;9.98;6.18;;;;;;;;;;10315556;28;20030;-74
2022/03/20 17:11:06;;;;;;;11.47;5.90;;;;;;;;;;10314198;28;20037;-72
2022/03/20 17:16:06;;;;;;;13.40;6.20;;;;;;;;;;10318877;28;20038;-76
2022/03/20 17:21:10;;;;;;;11.23;6.27;;;;;;;;;;10287211;28;20030;-76
2022/03/20 17:26:10;;;;;;;10.25;5.50;;;;;;;;;;10301827;28;20035;-79
2022/03/20 17:31:10;;;;;;;10.53;7.13;;;;;;;;;;10287567;28;20059;-78
2022/03/20 17:36:11;;;;;;;9.33;6.40;;;;;;;;;;10296499;28;20062;-73
2022/03/20 17:41:11;;;;;;;15.80;6.83;;;;;;;;;;10322506;28;20653;-74
2022/03/20 17:46:13;;;;;;;10.45;7.35;;;;;;;;;;10316191;28;20029;-72
2022/03/20 17:51:13;;;;;;;17.85;7.15;;;;;;;;;;10333640;28;20038;-71
2022/03/20 17:56:13;;;;;;;14.10;7.53;;;;;;;;;;10287072;28;20507;-71
2022/03/20 18:01:14;;;;;;;14.32;6.78;;;;;;;;;;10325578;28;20405;-71
2022/03/20 18:11:33;;;;;;;15.10;8.98;;;;;;;;;;10286372;28;20035;-70
2022/03/20 18:16:33;;;;;;;19.38;9.55;;;;;;;;;;10284863;28;20019;-74
2022/03/20 18:21:34;;;;;;;15.13;10.05;;;;;;;;;;10335327;28;20551;-72
2022/03/20 18:26:34;;;;;;;17.37;8.97;;;;;;;;;;10321354;28;20467;-73
2022/03/20 18:31:34;;;;;;;21.90;10.73;;;;;;;;;;10321812;28;20655;-71
2022/03/20 18:36:34;;;;;;;13.53;9.10;;;;;;;;;;10322353;28;20034;-73
2022/03/20 18:41:36;;;;;;;20.43;9.70;;;;;;;;;;10317847;28;20018;-70
2022/03/20 18:46:36;;;;;;;14.70;8.52;;;;;;;;;;10320135;28;20319;-70
2022/03/20 18:51:37;;;;;;;20.55;10.05;;;;;;;;;;10318559;28;20069;-73
2022/03/20 18:56:38;;;;;;;18.67;10.23;;;;;;;;;;10319807;28;20026;-72
2022/03/20 19:01:38;;;;;;;14.98;9.98;;;;;;;;;;10320652;28;20519;-77
2022/03/20 19:06:39;;;;;;;18.45;11.55;;;;;;;;;;10310357;28;20076;-69
2022/03/20 19:11:39;;;;;;;21.77;12.50;;;;;;;;;;10318354;28;20033;-74
2022/03/20 19:16:40;;;;;;;26.05;10.93;;;;;;;;;;10318181;28;20022;-70
2022/03/20 19:21:41;;;;;;;23.52;10.30;;;;;;;;;;10316891;28;20542;-71
2022/03/20 19:26:41;;;;;;;20.48;10.80;;;;;;;;;;10320205;28;20338;-72
2022/03/20 19:31:42;;;;;;;19.92;10.48;;;;;;;;;;10318770;28;20054;-70
2022/03/20 19:42:02;;;;;;;26.48;11.50;;;;;;;;;;10280380;28;20058;-71
2022/03/20 19:47:02;;;;;;;26.70;10.87;;;;;;;;;;10316218;28;20109;-71
2022/03/20 19:52:04;;;;;;;21.60;11.15;;;;;;;;;;10320073;28;20026;-71
2022/03/20 19:57:05;;;;;;;19.38;9.55;;;;;;;;;;10318567;28;20472;-74
2022/03/20 20:02:06;;;;;;;25.35;10.93;;;;;;;;;;10304692;28;20027;-74
2022/03/20 20:07:08;;;;;;;21.83;11.07;;;;;;;;;;10290558;28;20035;-70
2022/03/20 20:12:08;;;;;;;23.23;11.57;;;;;;;;;;10314113;28;20106;-71
2022/03/20 20:17:09;;;;;;;27.13;11.67;;;;;;;;;;10292888;28;20034;-71
2022/03/20 20:22:09;;;;;;;26.35;11.05;;;;;;;;;;10291165;28;20037;-71
2022/03/20 20:27:10;;;;;;;21.50;10.70;;;;;;;;;;10328559;28;20033;-70
2022/03/20 20:32:10;;;;;;;20.17;9.55;;;;;;;;;;10325117;28;20042;-74
2022/03/20 20:37:11;;;;;;;19.00;9.90;;;;;;;;;;10326413;28;20034;-73
2022/03/20 20:42:12;;;;;;;17.53;9.73;;;;;;;;;;10327108;28;20026;-77
2022/03/20 20:47:12;;;;;;;19.67;11.40;;;;;;;;;;10326111;28;20045;-71
2022/03/20 20:52:13;;;;;;;22.97;12.73;;;;;;;;;;10327309;28;20026;-71
2022/03/20 20:57:13;;;;;;;18.77;12.13;;;;;;;;;;10330421;28;20025;-72
2022/03/20 21:02:15;;;;;;;21.23;10.47;;;;;;;;;;10329500;28;20057;-71
2022/03/20 21:12:34;;;;;;;18.70;12.30;;;;;;;;;;10328953;28;20022;-70
2022/03/20 21:17:36;;;;;;;25.07;12.27;;;;;;;;;;10328148;28;20404;-72
2022/03/20 21:22:40;;;;;;;30.17;13.35;;;;;;;;;;10329436;28;20022;-75
2022/03/20 21:27:40;;;;;;;21.88;13.77;;;;;;;;;;10327201;28;20018;-70
2022/03/20 21:32:41;;;;;;;27.98;13.07;;;;;;;;;;10328409;28;20050;-71
2022/03/20 21:37:43;;;;;;;27.85;14.68;;;;;;;;;;10327065;28;20026;-72
2022/03/20 21:42:45;;;;;;;25.13;14.50;;;;;;;;;;10327213;28;20073;-72
2022/03/20 21:47:46;;;;;;;28.40;12.75;;;;;;;;;;10333726;28;20023;-75
2022/03/20 21:52:46;;;;;;;28.60;12.75;;;;;;;;;;10328187;28;20489;-72
2022/03/20 21:57:46;;;;;;;26.85;13.40;;;;;;;;;;10326489;28;20521;-73
2022/03/20 22:02:50;;;;;;;31.58;14.13;;;;;;;;;;10326167;28;20033;-71
2022/03/20 22:07:52;;;;;;;23.52;11.82;;;;;;;;;;10326295;28;20062;-71
2022/03/20 22:12:52;;;;;;;22.73;11.23;;;;;;;;;;10325944;28;20594;-71
2022/03/20 22:17:53;;;;;;;28.73;13.50;;;;;;;;;;10326108;28;20025;-76
2022/03/20 22:22:53;;;;;;;24.87;11.13;;;;;;;;;;10324367;28;20175;-72
2022/03/20 22:27:55;;;;;;;21.75;11.82;;;;;;;;;;10324839;28;20022;-76
2022/03/20 22:32:55;;;;;;;24.02;12.13;;;;;;;;;;10324981;28;20137;-75
2022/03/20 22:37:55;;;;;;;16.13;11.38;;;;;;;;;;10324970;28;20041;-72
2022/03/20 22:42:57;;;;;;;17.73;11.80;;;;;;;;;;10324655;28;20022;-72
2022/03/20 22:47:58;;;;;;;18.73;10.80;;;;;;;;;;10324304;28;20261;-71
2022/03/20 22:52:58;;;;;;;20.73;12.70;;;;;;;;;;10325814;28;20061;-72
2022/03/20 22:57:59;;;;;;;23.67;12.68;;;;;;;;;;10325517;28;20572;-69
2022/03/20 23:03:01;;;;;;;19.60;12.75;;;;;;;;;;10323605;28;20408;-71
2022/03/20 23:08:01;;;;;;;26.70;13.57;;;;;;;;;;10324529;28;20030;-73
2022/03/20 23:13:01;;;;;;;28.75;13.02;;;;;;;;;;10324181;28;20022;-73
2022/03/20 23:18:01;;;;;;;22.17;14.25;;;;;;;;;;10323501;28;20102;-72
2022/03/20 23:23:02;;;;;;;25.52;15.30;;;;;;;;;;10323914;28;20022;-75
2022/03/20 23:28:03;;;;;;;23.30;14.07;;;;;;;;;;10325071;28;20081;-70
2022/03/20 23:33:06;;;;;;;26.93;14.80;;;;;;;;;;10322526;28;20060;-71
2022/03/20 23:38:08;;;;;;;23.08;12.48;;;;;;;;;;10324024;28;20284;-74
2022/03/20 23:43:15;;;;;;;24.30;13.70;;;;;;;;;;10323450;28;20022;-71
2022/03/20 23:48:16;;;;;;;24.20;12.48;;;;;;;;;;10323034;28;20023;-71
2022/03/20 23:53:16;;;;;;;24.92;13.70;;;;;;;;;;10323165;28;20030;-72
2022/03/20 23:58:17;;;;;;;19.85;12.02;;;;;;;;;;10323741;28;20420;-72
